Terminal Aerodrome Forecast
Issued by NWS

Home | Current Version | Previous Version | Text Only | Print | Product List | Glossary On
Versions: 1 2 3 4 5 6 7 8 9 10 11 12 13 14 15 16
001
FTAK31 PAJN 280523
TAFAKT
TAF
PAKT 280523Z 2806/2906 15005KT P6SM SCT060 BKN100
     FM281200 15004KT P6SM VCSH SCT015 BKN060 OVC100
     FM290200 15008G15KT P6SM -SHRA SCT030 OVC040
      AMD LTD TO CLD VIS AND WIND 2806/2815=

USA.gov is the U.S. government's official web portal to all federal, state and local government web resources and services.